Hauptseite
METAR-TAF:

METAR-TAF

Flughäfen :

Kangiqsualujjuaq, Québec, Kanada

Breite: 58-43N, Länge: 065-59W, Höhe: 60 m

Beobachtung

Neuester Wetterbericht von vor 16 Minuten, um 19:00 UTC
Wind 9 kt aus Süd, Böen bis zu 17 kt, variierte zwischen Ost/Südost und Südwest
Temperatur 16°C
Luftfeuchtigkeit 48%
Luftdruck 1009 hPa
Sichtweite: 24.1 km
Leicht bewölkt in der Höhe von 12000 ft
Durchbrochene Bewölkung in der Höhe von 14000 ft
Geschlossene Wolkendecke in der Höhe von 24000 ft

METAR: CYLU 191900Z 17009G17KT 110V220 15SM FEW120 BKN140 OVC240 16/05 A2979 RMK AS2AS3CS3 SLP093 DENSITY ALT 600FT

Zeit: 15:16 (19:16 UTC)


TAF: fehlend

Wetterbeobachtungen und Prognosen von mehr als 4000 Flughäfen (METAR und TAF Bericht).

Die verfügbaren Stationen werden durch gelbe und rote Markierungen auf der Karte dargestellt.

Führen Sie die Maus auf sie, um den Namen der Station zu sehen.

Darauf klicken, um die Beobachtung von Wetterbeobachtungen und Prognosen zu sehen.

Um die Karte zu ändern : klicken Sie auf den grünen Tasten mit einem schwarzen Kreuz Zum Vergrößern, auf den grünen Button mit einem Gedankenstrich zu verkleinern, oder auf die grünen Pfeile für benachbarte Karten.


METAR-TAF: